Time;durP1;ratioP1;P1;durP2;ratioP2;P2;SDS_P1;SDS_P2;PMS_P1;PMS_P2;Temp;Humidity;BMP_temperature;BMP_pressure;BME280_temperature;BME280_humidity;BME280_pressure;Samples;Min_cycle;Max_cycle;Signal;HPM_P1;HPM_P2
2022/04/13 00:00:55;;;;;;;;;;;;;;;5.71;54.77;99728.47;8392924;28;19974;-74
2022/04/13 00:04:56;;;;;;;;;;;;;;;5.73;54.87;99731.66;8387853;28;20002;-75
2022/04/13 00:08:57;;;;;;;;;;;;;;;5.67;55.03;99721.97;8388124;28;19967;-74
2022/04/13 00:12:57;;;;;;;;;;;;;;;5.62;55.20;99719.28;8374488;28;20029;-74
2022/04/13 00:16:58;;;;;;;;;;;;;;;5.56;55.58;99720.31;8388607;28;19967;-74
2022/04/13 00:20:59;;;;;;;;;;;;;;;5.51;55.63;99708.53;8389270;28;19994;-75
2022/04/13 00:25:00;;;;;;;;;;;;;;;5.49;55.51;99705.31;8394228;28;20335;-74
2022/04/13 00:29:01;;;;;;;;;;;;;;;5.48;55.91;99703.69;8390465;28;19968;-76
2022/04/13 00:33:02;;;;;;;;;;;;;;;5.44;56.00;99718.69;8388359;28;19991;-74
2022/04/13 00:37:03;;;;;;;;;;;;;;;5.52;56.36;99710.13;8392874;28;20013;-75
2022/04/13 00:41:04;;;;;;;;;;;;;;;5.52;55.96;99710.13;8389104;28;20418;-74
2022/04/13 00:45:05;;;;;;;;;;;;;;;5.55;56.04;99724.09;8375513;28;19968;-74
2022/04/13 00:49:07;;;;;;;;;;;;;;;5.52;56.15;99720.84;8392210;28;19994;-74
2022/04/13 00:53:07;;;;;;;;;;;;;;;5.55;56.07;99718.72;8395731;28;19991;-74
2022/04/13 00:57:09;;;;;;;;;;;;;;;5.50;56.20;99706.91;8397329;28;19970;-74
2022/04/13 01:01:10;;;;;;;;;;;;;;;5.52;55.95;99715.50;8396927;28;19971;-74
2022/04/13 01:05:11;;;;;;;;;;;;;;;5.53;56.07;99717.13;8399246;28;20001;-75
2022/04/13 01:09:12;;;;;;;;;;;;;;;5.47;56.28;99723.50;8399027;28;19989;-74
2022/04/13 01:13:13;;;;;;;;;;;;;;;5.41;56.42;99719.19;8411699;28;19992;-74
2022/04/13 01:17:14;;;;;;;;;;;;;;;5.39;56.76;99704.47;8398296;28;19972;-74
2022/04/13 01:21:17;;;;;;;;;;;;;;;5.40;56.58;99711.41;8394603;28;20469;-74
2022/04/13 01:25:17;;;;;;;;;;;;;;;5.38;56.56;99711.69;8394931;28;20026;-74
2022/04/13 01:29:21;;;;;;;;;;;;;;;5.34;56.64;99702.53;8393640;28;20496;-74
2022/04/13 01:33:22;;;;;;;;;;;;;;;5.34;56.72;99702.53;8394068;28;19987;-75
2022/04/13 01:37:23;;;;;;;;;;;;;;;5.33;56.97;99703.63;8377302;28;20306;-73
2022/04/13 01:41:26;;;;;;;;;;;;;;;5.28;56.94;99695.56;8393547;28;20446;-74
2022/04/13 01:45:28;;;;;;;;;;;;;;;5.28;57.34;99695.56;8342502;28;19979;-74
2022/04/13 01:49:29;;;;;;;;;;;;;;;5.26;57.19;99699.53;8394435;28;20421;-74
2022/04/13 01:53:30;;;;;;;;;;;;;;;5.20;57.39;99695.22;8394157;28;20034;-74
2022/04/13 01:57:30;;;;;;;;;;;;;;;5.19;57.39;99696.28;8394064;28;20067;-75
2022/04/13 02:01:31;;;;;;;;;;;;;;;5.16;57.58;99700.31;8395059;28;19997;-74
2022/04/13 02:05:32;;;;;;;;;;;;;;;5.04;58.09;99692.47;8391604;28;20051;-73
2022/04/13 02:09:33;;;;;;;;;;;;;;;4.97;58.62;99707.16;8397811;28;20082;-75
2022/04/13 02:13:34;;;;;;;;;;;;;;;4.89;58.79;99710.28;8381774;28;20094;-74
2022/04/13 02:17:34;;;;;;;;;;;;;;;4.78;59.56;99708.59;8388679;28;20034;-75
2022/04/13 02:21:35;;;;;;;;;;;;;;;4.73;59.42;99716.59;8387925;28;20116;-74
2022/04/13 02:25:36;;;;;;;;;;;;;;;4.67;59.41;99719.22;8388374;28;19971;-75
2022/04/13 02:29:37;;;;;;;;;;;;;;;4.63;59.64;99723.47;8394716;28;19971;-74
2022/04/13 02:33:39;;;;;;;;;;;;;;;4.56;59.97;99722.88;8383133;28;19983;-75
2022/04/13 02:37:40;;;;;;;;;;;;;;;4.49;60.39;99722.28;8385619;28;20001;-75
2022/04/13 02:41:41;;;;;;;;;;;;;;;4.47;59.82;99708.34;8381348;28;19967;-75
2022/04/13 02:45:41;;;;;;;;;;;;;;;4.45;60.14;99710.47;8396936;28;20009;-74
2022/04/13 02:49:43;;;;;;;;;;;;;;;4.44;60.38;99714.19;8389760;28;19971;-74
2022/04/13 02:53:43;;;;;;;;;;;;;;;4.39;60.41;99706.13;8391717;28;19983;-74
2022/04/13 02:57:44;;;;;;;;;;;;;;;4.38;60.15;99717.09;8392217;28;19968;-74
2022/04/13 03:01:46;;;;;;;;;;;;;;;4.36;60.20;99722.69;8392861;28;20020;-74
2022/04/13 03:05:47;;;;;;;;;;;;;;;4.30;60.42;99712.19;8382913;28;19971;-74
2022/04/13 03:09:48;;;;;;;;;;;;;;;4.35;60.51;99715.72;8395053;28;20130;-74
2022/04/13 03:13:49;;;;;;;;;;;;;;;4.35;60.44;99715.72;8383497;28;20026;-73
2022/04/13 03:17:51;;;;;;;;;;;;;;;4.36;60.52;99717.34;8394194;28;20010;-74
2022/04/13 03:21:53;;;;;;;;;;;;;;;4.30;60.68;99718.34;8393060;28;19968;-74
2022/04/13 03:25:54;;;;;;;;;;;;;;;4.29;60.56;99726.59;8394584;28;19968;-74
2022/04/13 03:29:55;;;;;;;;;;;;;;;4.23;60.84;99720.41;8386535;28;20066;-74
2022/04/13 03:33:55;;;;;;;;;;;;;;;4.21;60.96;99726.03;8384615;28;19994;-74
2022/04/13 03:37:56;;;;;;;;;;;;;;;4.20;60.96;99728.94;8389477;28;20036;-74
2022/04/13 03:41:57;;;;;;;;;;;;;;;4.17;61.20;99729.44;8375103;28;20062;-74
2022/04/13 03:45:58;;;;;;;;;;;;;;;4.17;61.01;99734.78;8387883;28;20062;-75
2022/04/13 03:49:58;;;;;;;;;;;;;;;4.15;61.07;99736.91;8359397;28;19973;-74
2022/04/13 03:54:00;;;;;;;;;;;;;;;4.14;61.30;99736.09;8395739;28;20048;-74
2022/04/13 03:58:01;;;;;;;;;;;;;;;4.13;61.15;99739.00;8407468;28;20041;-75
2022/04/13 04:02:02;;;;;;;;;;;;;;;4.08;61.52;99731.75;8396294;28;20028;-75
2022/04/13 04:06:03;;;;;;;;;;;;;;;4.08;61.37;99736.28;8391948;28;19971;-75
2022/04/13 04:10:04;;;;;;;;;;;;;;;4.09;61.42;99743.25;8381991;28;20497;-74
2022/04/13 04:14:05;;;;;;;;;;;;;;;4.11;61.49;99736.59;8387764;28;19987;-75
2022/04/13 04:18:07;;;;;;;;;;;;;;;4.15;61.40;99731.56;8394088;28;19971;-74
2022/04/13 04:22:07;;;;;;;;;;;;;;;4.13;61.22;99733.66;8390987;28;19971;-75
2022/04/13 04:26:09;;;;;;;;;;;;;;;4.17;61.15;99745.50;8393757;28;20041;-74
2022/04/13 04:30:09;;;;;;;;;;;;;;;4.22;61.30;99743.69;8392453;28;20362;-75
2022/04/13 04:34:10;;;;;;;;;;;;;;;4.22;61.07;99742.88;8416681;28;20029;-75
2022/04/13 04:38:11;;;;;;;;;;;;;;;4.27;61.06;99745.59;8401879;28;20018;-75
2022/04/13 04:42:12;;;;;;;;;;;;;;;4.34;61.11;99756.88;8397904;28;19998;-74
2022/04/13 04:46:12;;;;;;;;;;;;;;;4.46;60.88;99754.88;8405621;28;19971;-75
2022/04/13 04:50:14;;;;;;;;;;;;;;;4.51;60.59;99752.25;8414157;28;19967;-74
2022/04/13 04:54:14;;;;;;;;;;;;;;;4.53;60.66;99760.84;8406938;28;19983;-74
2022/04/13 04:58:15;;;;;;;;;;;;;;;4.54;60.47;99757.09;8406719;28;19964;-74
2022/04/13 05:02:16;;;;;;;;;;;;;;;4.61;60.63;99760.34;8396285;28;19973;-74
2022/04/13 05:06:21;;;;;;;;;;;;;;;4.67;60.11;99758.53;8395358;28;20060;-74
2022/04/13 05:10:22;;;;;;;;;;;;;;;4.77;59.96;99771.19;8399186;28;20017;-74
2022/04/13 05:14:23;;;;;;;;;;;;;;;4.88;59.62;99767.53;8401382;28;20342;-75
2022/04/13 05:18:24;;;;;;;;;;;;;;;4.92;59.85;99768.63;8397617;28;19974;-74
2022/04/13 05:22:25;;;;;;;;;;;;;;;4.97;59.72;99761.47;8395059;28;19990;-74
2022/04/13 05:26:25;;;;;;;;;;;;;;;5.05;59.70;99768.22;8392593;28;20078;-74
2022/04/13 05:30:26;;;;;;;;;;;;;;;5.11;59.62;99772.56;8393938;28;19974;-74
2022/04/13 05:34:27;;;;;;;;;;;;;;;5.17;59.80;99766.19;8393244;28;19987;-74
2022/04/13 05:38:28;;;;;;;;;;;;;;;5.26;59.40;99769.97;8398692;28;19974;-74
2022/04/13 05:42:30;;;;;;;;;;;;;;;5.29;59.75;99764.09;8403228;28;19967;-74
2022/04/13 05:46:33;;;;;;;;;;;;;;;5.37;59.79;99777.03;8399962;28;19971;-75
2022/04/13 05:50:33;;;;;;;;;;;;;;;5.44;59.82;99766.91;8398959;28;20002;-74
2022/04/13 05:54:34;;;;;;;;;;;;;;;5.57;59.78;99776.34;8379672;28;20424;-75
2022/04/13 05:58:35;;;;;;;;;;;;;;;5.75;59.71;99767.06;8398793;28;19967;-74
2022/04/13 06:02:36;;;;;;;;;;;;;;;5.86;59.80;99771.41;8407781;28;20004;-75
2022/04/13 06:06:37;;;;;;;;;;;;;;;6.00;59.73;99772.56;8402394;28;19970;-74
2022/04/13 06:10:38;;;;;;;;;;;;;;;6.06;59.56;99782.22;8413638;28;19986;-75
2022/04/13 06:14:39;;;;;;;;;;;;;;;6.16;59.51;99784.94;8409130;28;20441;-75
2022/04/13 06:18:39;;;;;;;;;;;;;;;6.24;59.44;99792.47;8408582;28;20112;-75
2022/04/13 06:22:41;;;;;;;;;;;;;;;6.42;59.29;99785.03;8414965;28;19967;-75
2022/04/13 06:26:42;;;;;;;;;;;;;;;6.53;59.15;99778.59;8405185;28;19962;-75
2022/04/13 06:30:46;;;;;;;;;;;;;;;6.66;59.37;99783.47;8389604;28;19971;-75
2022/04/13 06:34:47;;;;;;;;;;;;;;;6.84;59.43;99785.63;8397260;28;20036;-75
2022/04/13 06:38:47;;;;;;;;;;;;;;;6.97;58.81;99779.75;8396650;28;20488;-75
2022/04/13 06:42:48;;;;;;;;;;;;;;;7.14;58.37;99780.25;8397711;28;20058;-76
2022/04/13 06:46:49;;;;;;;;;;;;;;;7.26;58.53;99781.84;8404068;28;20430;-75
2022/04/13 06:50:50;;;;;;;;;;;;;;;7.42;58.37;99786.13;8406726;28;19967;-75
2022/04/13 06:54:50;;;;;;;;;;;;;;;7.52;57.75;99788.81;8410428;28;20469;-75
2022/04/13 06:58:51;;;;;;;;;;;;;;;7.68;57.85;99795.75;8398582;28;20012;-76
2022/04/13 07:02:57;;;;;;;;;;;;;;;7.82;57.12;99812.94;8410104;28;21273;-75
2022/04/13 07:06:58;;;;;;;;;;;;;;;8.03;57.00;99798.34;8406511;28;20108;-75
2022/04/13 07:10:59;;;;;;;;;;;;;;;8.18;56.46;99799.38;8382497;28;20457;-75
2022/04/13 07:15:00;;;;;;;;;;;;;;;8.26;56.68;99802.28;8406544;28;20012;-75
2022/04/13 07:19:01;;;;;;;;;;;;;;;8.43;55.48;99807.34;8406260;28;19967;-76
2022/04/13 07:23:02;;;;;;;;;;;;;;;8.58;55.12;99807.25;8407348;28;19977;-76
2022/04/13 07:27:02;;;;;;;;;;;;;;;8.80;55.10;99802.28;8399912;28;20382;-75
2022/04/13 07:31:04;;;;;;;;;;;;;;;8.95;54.28;99814.81;8404328;28;20444;-76
2022/04/13 07:35:05;;;;;;;;;;;;;;;9.05;53.87;99808.53;8410312;28;19987;-75
2022/04/13 07:39:06;;;;;;;;;;;;;;;9.16;53.65;99815.47;8407351;28;19978;-76
2022/04/13 07:43:07;;;;;;;;;;;;;;;9.40;53.16;99810.97;8397646;28;20490;-76
2022/04/13 07:47:09;;;;;;;;;;;;;;;9.59;52.18;99819.94;8348006;28;19994;-75
2022/04/13 07:51:09;;;;;;;;;;;;;;;9.72;51.79;99819.28;8407561;28;19978;-76
2022/04/13 07:55:11;;;;;;;;;;;;;;;9.85;51.91;99822.38;8403550;28;19985;-75
2022/04/13 07:59:11;;;;;;;;;;;;;;;10.10;51.15;99824.78;8405831;28;20338;-75
2022/04/13 08:03:12;;;;;;;;;;;;;;;10.24;50.78;99812.25;8400249;28;19978;-75
2022/04/13 08:07:14;;;;;;;;;;;;;;;10.44;51.22;99814.66;8410503;28;19969;-75
2022/04/13 08:11:15;;;;;;;;;;;;;;;10.75;50.35;99814.25;8400973;28;20085;-75
2022/04/13 08:15:15;;;;;;;;;;;;;;;10.85;50.37;99808.69;8410565;28;19994;-75
2022/04/13 08:19:16;;;;;;;;;;;;;;;11.09;49.65;99809.41;8405348;28;20073;-74
2022/04/13 08:23:17;;;;;;;;;;;;;;;11.17;49.89;99811.44;8418594;28;19977;-76
2022/04/13 08:27:18;;;;;;;;;;;;;;;11.58;50.02;99826.97;8405365;28;20139;-76
2022/04/13 08:31:19;;;;;;;;;;;;;;;11.73;48.40;99813.22;8404026;28;20380;-76
2022/04/13 08:35:20;;;;;;;;;;;;;;;11.86;48.61;99812.41;8406534;28;20458;-76
2022/04/13 08:39:21;;;;;;;;;;;;;;;12.01;47.54;99803.97;8404518;28;19971;-77
2022/04/13 08:43:23;;;;;;;;;;;;;;;12.16;47.73;99806.38;8410107;28;19964;-76
2022/04/13 08:47:24;;;;;;;;;;;;;;;12.37;46.90;99814.13;8401381;28;19968;-76
2022/04/13 08:51:25;;;;;;;;;;;;;;;12.55;45.30;99807.75;8406288;28;19964;-76
2022/04/13 08:55:26;;;;;;;;;;;;;;;12.64;45.14;99798.59;8401848;28;20008;-74
2022/04/13 08:59:39;;;;;;;;;;;;;;;12.77;45.20;99799.66;8401733;28;20015;-76
2022/04/13 09:03:43;;;;;;;;;;;;;;;12.96;42.86;99792.16;8399008;28;20423;-75
2022/04/13 09:08:02;;;;;;;;;;;;;;;13.09;43.25;99796.72;8400496;28;19964;-76
2022/04/13 09:12:03;;;;;;;;;;;;;;;13.27;42.82;99796.88;8404903;28;20003;-76
2022/04/13 09:16:07;;;;;;;;;;;;;;;13.51;42.82;99781.06;8401391;28;19997;-77
2022/04/13 09:20:07;;;;;;;;;;;;;;;13.70;43.24;99789.75;8413285;28;20420;-76
2022/04/13 09:24:09;;;;;;;;;;;;;;;13.86;41.84;99795.56;8410354;28;20069;-76
2022/04/13 09:28:10;;;;;;;;;;;;;;;13.94;41.07;99794.81;8403302;28;19972;-76
2022/04/13 09:32:10;;;;;;;;;;;;;;;14.16;40.90;99791.22;8410846;28;19972;-76
2022/04/13 09:36:11;;;;;;;;;;;;;;;14.34;40.58;99787.41;8409203;28;19976;-76
2022/04/13 09:40:31;;;;;;;;;;;;;;;14.35;39.27;99799.91;8405848;28;20273;-75
2022/04/13 09:44:33;;;;;;;;;;;;;;;14.47;40.13;99780.28;8417564;28;19970;-75
2022/04/13 09:48:34;;;;;;;;;;;;;;;14.62;39.89;99788.78;8411354;28;19967;-76
2022/04/13 09:52:39;;;;;;;;;;;;;;;14.83;40.16;99782.69;8407091;28;19966;-76
2022/04/13 09:56:44;;;;;;;;;;;;;;;14.93;39.21;99785.91;8379844;28;19967;-76
2022/04/13 10:00:46;;;;;;;;;;;;;;;15.08;38.96;99790.03;8404218;28;20028;-77
2022/04/13 10:04:47;;;;;;;;;;;;;;;15.17;38.66;99788.13;8407682;28;20020;-76
2022/04/13 10:08:56;;;;;;;;;;;;;;;15.22;38.55;99790.69;8409781;28;19967;-77
2022/04/13 10:12:58;;;;;;;;;;;;;;;15.47;38.17;99792.53;8412263;28;19993;-76
2022/04/13 10:17:08;;;;;;;;;;;;;;;15.62;37.48;99775.72;8404763;28;19965;-76
2022/04/13 10:21:09;;;;;;;;;;;;;;;15.74;37.36;99780.47;8406224;28;19991;-76
2022/04/13 10:25:15;;;;;;;;;;;;;;;15.85;36.20;99772.75;8415515;28;19967;-76
2022/04/13 10:29:19;;;;;;;;;;;;;;;16.03;37.06;99766.06;8407496;28;19971;-75
2022/04/13 10:33:20;;;;;;;;;;;;;;;16.04;35.74;99763.03;8397043;28;20089;-77
2022/04/13 10:37:23;;;;;;;;;;;;;;;16.31;36.27;99772.66;8400342;28;20078;-77
2022/04/13 10:41:24;;;;;;;;;;;;;;;16.46;35.98;99758.44;8404554;28;20054;-76
2022/04/13 10:45:26;;;;;;;;;;;;;;;16.51;35.74;99754.72;8401608;28;20346;-77
2022/04/13 10:49:27;;;;;;;;;;;;;;;16.60;34.87;99754.69;8403603;28;20501;-76
2022/04/13 10:53:29;;;;;;;;;;;;;;;16.71;35.74;99753.94;8388597;28;20319;-76
2022/04/13 10:57:34;;;;;;;;;;;;;;;17.00;35.06;99733.16;8408658;28;19967;-74
2022/04/13 11:01:46;;;;;;;;;;;;;;;17.24;35.36;99744.94;8406698;28;20008;-75
2022/04/13 11:05:47;;;;;;;;;;;;;;;17.34;34.64;99753.84;8396832;28;20062;-75
2022/04/13 11:09:48;;;;;;;;;;;;;;;17.43;34.65;99757.28;8361003;28;1331667;-76
2022/04/13 11:13:49;;;;;;;;;;;;;;;17.53;33.74;99751.38;8404630;28;19991;-76
2022/04/13 11:17:51;;;;;;;;;;;;;;;17.79;33.74;99754.63;8402962;28;20061;-75
2022/04/13 11:21:55;;;;;;;;;;;;;;;17.91;33.34;99762.84;8412538;28;19967;-74
2022/04/13 11:26:01;;;;;;;;;;;;;;;17.80;32.73;99756.22;8405653;28;20056;-75
2022/04/13 11:30:03;;;;;;;;;;;;;;;17.84;32.48;99746.22;8417721;28;20069;-75
2022/04/13 11:34:05;;;;;;;;;;;;;;;17.92;31.76;99758.97;8403141;28;20515;-75
2022/04/13 11:38:06;;;;;;;;;;;;;;;18.06;31.83;99758.63;8414698;28;19971;-75
2022/04/13 11:42:17;;;;;;;;;;;;;;;18.19;32.13;99751.22;8403522;28;20430;-75
2022/04/13 11:46:39;;;;;;;;;;;;;;;18.36;32.33;99756.41;8403437;28;19971;-75
2022/04/13 11:50:41;;;;;;;;;;;;;;;18.44;31.62;99741.84;8404873;28;19967;-75
2022/04/13 11:54:46;;;;;;;;;;;;;;;18.44;31.82;99737.16;8417778;28;20435;-76
2022/04/13 11:58:49;;;;;;;;;;;;;;;18.53;31.30;99731.53;8400844;28;20052;-76
2022/04/13 12:02:50;;;;;;;;;;;;;;;18.51;31.23;99736.56;8420005;28;20019;-75
2022/04/13 12:06:51;;;;;;;;;;;;;;;18.71;31.28;99735.63;8385167;28;20253;-75
2022/04/13 12:10:59;;;;;;;;;;;;;;;18.67;30.03;99729.25;8403845;28;20362;-75
2022/04/13 12:15:00;;;;;;;;;;;;;;;18.78;30.02;99713.94;8408036;28;20425;-75
2022/04/13 12:19:01;;;;;;;;;;;;;;;18.83;31.46;99716.41;8380681;28;19967;-76
2022/04/13 12:23:26;;;;;;;;;;;;;;;18.85;31.33;99719.63;8398650;28;20061;-76
2022/04/13 12:27:27;;;;;;;;;;;;;;;19.06;30.16;99713.13;8408488;28;20046;-75
2022/04/13 12:31:29;;;;;;;;;;;;;;;19.19;30.06;99711.94;8396807;28;20379;-76
2022/04/13 12:35:29;;;;;;;;;;;;;;;19.48;29.97;99703.31;8413561;28;19983;-75
2022/04/13 12:39:32;;;;;;;;;;;;;;;19.64;30.31;99701.38;8400830;28;19974;-75
2022/04/13 12:43:33;;;;;;;;;;;;;;;19.73;30.42;99701.97;8391589;28;20003;-76
2022/04/13 12:47:42;;;;;;;;;;;;;;;19.93;30.18;99696.56;8409343;28;20439;-76
2022/04/13 12:51:43;;;;;;;;;;;;;;;19.81;29.02;99701.00;8404063;28;19973;-76
2022/04/13 12:55:51;;;;;;;;;;;;;;;19.67;28.97;99695.16;8410751;28;19983;-75
2022/04/13 12:59:52;;;;;;;;;;;;;;;19.72;29.49;99692.16;8414076;28;19967;-75
2022/04/13 13:03:54;;;;;;;;;;;;;;;19.71;29.37;99684.31;8407853;28;19971;-75
2022/04/13 13:07:55;;;;;;;;;;;;;;;19.91;28.47;99683.22;8409223;28;19967;-74
2022/04/13 13:11:59;;;;;;;;;;;;;;;19.86;27.71;99677.22;8418402;28;20042;-75
2022/04/13 13:16:00;;;;;;;;;;;;;;;19.96;29.00;99679.41;8419180;28;20458;-75
2022/04/13 13:20:08;;;;;;;;;;;;;;;20.27;29.01;99679.31;8412277;28;19995;-75
2022/04/13 13:24:09;;;;;;;;;;;;;;;20.65;28.70;99673.88;8421485;28;20450;-75
2022/04/13 13:28:10;;;;;;;;;;;;;;;21.78;26.71;99674.31;8405032;28;20407;-76
2022/04/13 13:32:14;;;;;;;;;;;;;;;22.32;25.06;99666.47;8424777;28;20430;-76
2022/04/13 13:36:15;;;;;;;;;;;;;;;23.17;25.33;99661.94;8408471;28;19987;-76
2022/04/13 13:40:35;;;;;;;;;;;;;;;24.21;25.14;99669.88;8407370;28;19967;-75
2022/04/13 13:44:36;;;;;;;;;;;;;;;25.10;23.35;99664.69;8391241;28;20061;-76
2022/04/13 13:48:36;;;;;;;;;;;;;;;25.52;22.65;99659.19;8380550;28;19974;-75
2022/04/13 13:52:37;;;;;;;;;;;;;;;26.27;21.71;99654.38;8402012;28;19967;-75
2022/04/13 13:56:38;;;;;;;;;;;;;;;26.55;21.26;99659.00;8406051;28;20085;-76
2022/04/13 14:00:39;;;;;;;;;;;;;;;27.53;20.29;99651.31;8413951;28;19967;-76
2022/04/13 14:04:40;;;;;;;;;;;;;;;27.19;20.11;99659.44;8406881;28;20103;-76
2022/04/13 14:08:42;;;;;;;;;;;;;;;28.18;19.76;99651.50;8407672;28;19967;-76
2022/04/13 14:12:43;;;;;;;;;;;;;;;28.95;19.71;99650.50;8406385;28;19985;-75
2022/04/13 14:16:45;;;;;;;;;;;;;;;28.53;19.47;99646.28;8404096;28;19989;-75
2022/04/13 14:20:46;;;;;;;;;;;;;;;29.99;18.19;99646.84;8400676;28;20069;-76
2022/04/13 14:24:47;;;;;;;;;;;;;;;30.88;17.21;99637.47;8401546;28;20035;-76
2022/04/13 14:28:49;;;;;;;;;;;;;;;31.41;16.08;99642.56;8397637;28;19966;-76
2022/04/13 14:32:51;;;;;;;;;;;;;;;30.93;17.08;99639.75;8398693;28;20519;-76
2022/04/13 14:36:51;;;;;;;;;;;;;;;30.08;17.61;99624.81;8392544;28;19967;-76
2022/04/13 14:40:52;;;;;;;;;;;;;;;28.49;18.44;99639.22;8398483;28;19930;-77
2022/04/13 14:44:53;;;;;;;;;;;;;;;27.97;18.87;99641.38;8397892;28;19927;-75
2022/04/13 14:48:54;;;;;;;;;;;;;;;26.78;20.20;99645.44;8397642;28;19994;-76
2022/04/13 14:52:55;;;;;;;;;;;;;;;26.87;20.02;99642.25;8386417;28;19971;-75
2022/04/13 14:56:56;;;;;;;;;;;;;;;26.76;19.84;99641.47;8392430;28;20411;-77
2022/04/13 15:00:57;;;;;;;;;;;;;;;27.50;19.54;99631.91;8393149;28;19967;-76
2022/04/13 15:04:58;;;;;;;;;;;;;;;27.58;19.77;99636.19;8390718;28;19986;-76
2022/04/13 15:08:59;;;;;;;;;;;;;;;28.01;19.67;99631.81;8387728;28;20021;-76
2022/04/13 15:13:03;;;;;;;;;;;;;;;28.02;19.42;99633.34;8379159;28;20450;-76
2022/04/13 15:17:04;;;;;;;;;;;;;;;29.04;18.59;99635.28;8376370;28;20078;-76
2022/04/13 15:21:04;;;;;;;;;;;;;;;28.88;18.45;99633.91;8398224;28;19975;-76
2022/04/13 15:25:10;;;;;;;;;;;;;;;29.08;18.43;99630.47;8397165;28;20033;-76
2022/04/13 15:29:11;;;;;;;;;;;;;;;29.66;17.71;99632.69;8395118;28;19982;-76
2022/04/13 15:33:12;;;;;;;;;;;;;;;28.01;18.00;99631.81;8410206;28;19971;-76
2022/04/13 15:37:13;;;;;;;;;;;;;;;28.52;18.43;99622.47;8362426;28;19971;-77
2022/04/13 15:41:17;;;;;;;;;;;;;;;27.72;18.50;99619.41;8369027;28;20456;-76
2022/04/13 15:45:17;;;;;;;;;;;;;;;27.27;19.27;99622.19;8395327;28;20078;-76
2022/04/13 15:49:18;;;;;;;;;;;;;;;28.43;18.58;99618.66;8388616;28;19982;-77
2022/04/13 15:53:22;;;;;;;;;;;;;;;28.62;18.56;99620.75;8387949;28;20335;-76
2022/04/13 15:57:23;;;;;;;;;;;;;;;28.38;18.59;99610.78;8388171;28;19975;-77
2022/04/13 16:01:24;;;;;;;;;;;;;;;27.75;19.04;99613.06;8392761;28;20025;-76
2022/04/13 16:05:25;;;;;;;;;;;;;;;27.93;18.50;99613.63;8392850;28;20072;-77
2022/04/13 16:09:26;;;;;;;;;;;;;;;27.02;19.45;99610.47;8383685;28;20009;-77
2022/04/13 16:13:27;;;;;;;;;;;;;;;26.02;20.31;99612.09;8374780;28;19976;-75
2022/04/13 16:17:28;;;;;;;;;;;;;;;24.90;21.51;99605.47;8380029;28;20069;-76
2022/04/13 16:21:29;;;;;;;;;;;;;;;23.72;22.55;99604.16;8393095;28;19978;-77
2022/04/13 16:25:30;;;;;;;;;;;;;;;23.17;23.28;99606.84;8390845;28;20013;-75
2022/04/13 16:29:30;;;;;;;;;;;;;;;22.62;23.72;99607.84;8392639;28;19975;-76
2022/04/13 16:33:31;;;;;;;;;;;;;;;22.23;23.89;99607.41;8393701;28;19975;-76
2022/04/13 16:37:32;;;;;;;;;;;;;;;21.56;25.09;99609.19;8393710;28;20445;-75
2022/04/13 16:41:33;;;;;;;;;;;;;;;21.31;25.87;99606.81;8371107;28;20438;-75
2022/04/13 16:45:35;;;;;;;;;;;;;;;21.03;26.43;99600.84;8391641;28;20036;-75
2022/04/13 16:49:36;;;;;;;;;;;;;;;20.84;26.91;99601.69;8392211;28;19977;-75
2022/04/13 16:53:37;;;;;;;;;;;;;;;20.44;27.64;99607.59;8392922;28;19979;-75
2022/04/13 16:57:38;;;;;;;;;;;;;;;20.14;27.79;99609.31;8392093;28;20389;-75
2022/04/13 17:01:40;;;;;;;;;;;;;;;19.73;28.78;99606.06;8366887;28;19994;-75
2022/04/13 17:05:40;;;;;;;;;;;;;;;19.50;28.94;99602.41;8361247;28;19987;-76
2022/04/13 17:09:41;;;;;;;;;;;;;;;19.31;29.27;99605.03;8389469;28;20466;-75
2022/04/13 17:13:42;;;;;;;;;;;;;;;18.97;29.86;99601.88;8390665;28;20077;-75
2022/04/13 17:17:43;;;;;;;;;;;;;;;18.75;30.26;99604.41;8393909;28;20342;-75
2022/04/13 17:21:44;;;;;;;;;;;;;;;18.48;30.26;99605.97;8367321;28;20614;-75
2022/04/13 17:25:45;;;;;;;;;;;;;;;18.19;30.91;99611.81;8385386;28;19987;-74
2022/04/13 17:29:46;;;;;;;;;;;;;;;17.88;31.76;99615.97;8395274;28;20439;-74
2022/04/13 17:33:47;;;;;;;;;;;;;;;17.60;32.06;99615.09;8415658;28;20450;-75
2022/04/13 17:37:48;;;;;;;;;;;;;;;17.37;32.93;99605.75;8397362;28;20457;-74
2022/04/13 17:41:49;;;;;;;;;;;;;;;17.10;33.23;99618.91;8369098;28;20033;-74
2022/04/13 17:45:50;;;;;;;;;;;;;;;16.86;33.84;99618.88;8392159;28;19987;-74
2022/04/13 17:49:51;;;;;;;;;;;;;;;16.60;34.77;99610.19;8399127;28;19971;-74
2022/04/13 17:53:52;;;;;;;;;;;;;;;16.28;35.27;99615.25;8401153;28;19982;-75
2022/04/13 17:57:53;;;;;;;;;;;;;;;16.10;36.02;99616.50;8401039;28;19978;-74
2022/04/13 18:01:54;;;;;;;;;;;;;;;15.90;36.92;99620.03;8414537;28;20069;-74
2022/04/13 18:05:55;;;;;;;;;;;;;;;15.74;37.26;99621.75;8383151;28;20066;-75
2022/04/13 18:09:57;;;;;;;;;;;;;;;15.58;37.67;99619.59;8397400;28;20433;-75
2022/04/13 18:13:58;;;;;;;;;;;;;;;15.44;38.62;99613.53;8398267;28;19967;-75
2022/04/13 18:17:59;;;;;;;;;;;;;;;15.25;38.60;99625.97;8408853;28;19971;-76
2022/04/13 18:22:00;;;;;;;;;;;;;;;15.15;39.30;99632.56;8398563;28;20024;-75
2022/04/13 18:26:01;;;;;;;;;;;;;;;15.06;39.55;99639.97;8398671;28;19987;-75
2022/04/13 18:30:03;;;;;;;;;;;;;;;14.94;40.12;99637.13;8396578;28;19975;-76
2022/04/13 18:34:04;;;;;;;;;;;;;;;14.79;40.78;99646.59;8392995;28;19977;-75
2022/04/13 18:38:06;;;;;;;;;;;;;;;14.62;40.93;99646.63;8399183;28;20011;-78
2022/04/13 18:42:07;;;;;;;;;;;;;;;14.50;41.32;99658.16;8354091;28;19978;-75
2022/04/13 18:46:08;;;;;;;;;;;;;;;14.39;41.58;99648.72;8414126;28;19987;-75
2022/04/13 18:50:10;;;;;;;;;;;;;;;14.33;41.42;99650.75;8408457;28;20021;-75
2022/04/13 18:54:11;;;;;;;;;;;;;;;14.24;41.54;99646.47;8392072;28;19972;-75
2022/04/13 18:58:13;;;;;;;;;;;;;;;14.11;41.50;99644.72;8358704;28;20018;-75
2022/04/13 19:02:14;;;;;;;;;;;;;;;14.02;41.53;99643.88;8392478;28;20454;-75
2022/04/13 19:06:15;;;;;;;;;;;;;;;13.90;41.67;99648.03;8394129;28;20437;-76
2022/04/13 19:10:16;;;;;;;;;;;;;;;13.76;41.84;99652.00;8392936;28;20002;-76
2022/04/13 19:14:17;;;;;;;;;;;;;;;13.64;42.02;99654.53;8395132;28;19971;-76
2022/04/13 19:18:18;;;;;;;;;;;;;;;13.53;42.37;99648.59;8392634;28;19971;-76
2022/04/13 19:22:19;;;;;;;;;;;;;;;13.33;42.93;99655.38;8361423;28;20576;-76
2022/04/13 19:26:20;;;;;;;;;;;;;;;13.28;43.01;99662.84;8417177;28;20035;-76
2022/04/13 19:30:24;;;;;;;;;;;;;;;13.21;43.25;99654.38;8379826;28;20466;-77
2022/04/13 19:34:24;;;;;;;;;;;;;;;13.15;43.53;99652.91;8394001;28;19971;-75
2022/04/13 19:38:26;;;;;;;;;;;;;;;13.03;43.77;99654.25;8395293;28;19999;-75
2022/04/13 19:42:29;;;;;;;;;;;;;;;12.98;44.07;99648.97;8407925;28;20066;-75
2022/04/13 19:46:33;;;;;;;;;;;;;;;12.84;44.31;99648.25;8390706;28;20354;-75
2022/04/13 19:50:34;;;;;;;;;;;;;;;12.76;44.37;99646.28;8398537;28;20072;-75
2022/04/13 19:54:36;;;;;;;;;;;;;;;12.58;44.72;99647.28;8393157;28;20426;-75
2022/04/13 19:58:39;;;;;;;;;;;;;;;12.53;44.87;99642.00;8396383;28;19994;-74
2022/04/13 20:02:40;;;;;;;;;;;;;;;12.44;45.00;99643.81;8394332;28;20470;-75
2022/04/13 20:06:41;;;;;;;;;;;;;;;12.31;45.39;99639.28;8399463;28;20031;-75
2022/04/13 20:10:43;;;;;;;;;;;;;;;12.28;45.41;99635.25;8395952;28;20068;-75
2022/04/13 20:14:44;;;;;;;;;;;;;;;12.14;45.83;99635.31;8394336;28;20013;-75
2022/04/13 20:18:45;;;;;;;;;;;;;;;12.02;45.88;99624.22;8396437;28;19967;-75
2022/04/13 20:22:46;;;;;;;;;;;;;;;11.92;46.36;99624.47;8393987;28;19967;-75
2022/04/13 20:26:47;;;;;;;;;;;;;;;11.86;46.25;99622.97;8394395;28;20077;-74
2022/04/13 20:30:51;;;;;;;;;;;;;;;11.84;46.56;99625.19;8393835;28;19974;-75
2022/04/13 20:34:55;;;;;;;;;;;;;;;11.72;46.81;99631.09;8396655;28;19968;-75
2022/04/13 20:38:56;;;;;;;;;;;;;;;11.66;47.41;99628.78;8395006;28;19971;-74
2022/04/13 20:42:58;;;;;;;;;;;;;;;11.66;46.99;99628.78;8393542;28;19975;-75
2022/04/13 20:46:59;;;;;;;;;;;;;;;11.54;47.37;99636.59;8400915;28;19983;-75
2022/04/13 20:51:01;;;;;;;;;;;;;;;11.41;47.90;99639.03;8392330;28;20453;-74
2022/04/13 20:55:03;;;;;;;;;;;;;;;11.31;48.10;99644.66;8398202;28;20385;-74
2022/04/13 20:59:05;;;;;;;;;;;;;;;11.20;48.52;99643.25;8398776;28;19971;-74
2022/04/13 21:03:06;;;;;;;;;;;;;;;11.10;48.92;99632.63;8398077;28;19971;-74